• Join FlightAware (Why Join?)
  • Login
  • US Flag 
12:21PM EDT


 

Airport Tracker/Info


-or-


 

Live Flight TrackerFlight Track Log ✈ OPT410 ✈ 27-Jun-2013 ✈ KBCT - KJAX

Flight Track Log - Related Links

Times and Time Zones

All times are in EDT time to prevent confusion due to time zone crossing. See the OPT410 flight status page for this flight to view local times or setup timezone preferences in your user account.

Time Position Orientation Groundspeed Altitude Reporting Facility
EDT Latitude Longitude Course Direction KTS MPH feet Rate Location/Type
03:10PM 26.4403 -80.0469 334° Northwest 214 246 3,600  Level Miami Center
03:11PM 26.4831 -80.0064 40° Northeast 232 267 5,800 2,460 Climbing Miami Center
03:12PM 26.5319 -80.0564 318° Northwest 279 321 8,600 2,100 Climbing Miami Center
03:13PM 26.5514 -80.1289 287° West 279 321 10,000 1,320 Climbing Miami Center
03:14PM 26.5975 -80.2161 301° West 309 356 11,300 960 Climbing Miami Center
03:15PM 26.6875 -80.2886 324° Northwest 345 397 12,000 300 Climbing Miami Center
03:16PM 26.7352 -80.4806 334° Northwest  Level FlightAware Approximate
03:16PM 26.7744 -80.3258 339° North 357 411 12,000  Level Miami Center
03:17PM 26.8758 -80.3661 340° North 357 411 14,700 2,640 Climbing Miami Center
03:18PM 26.9564 -80.4011 339° North 323 372 17,300 1,740 Climbing Miami Center
03:19PM 27.0350 -80.4361 338° Northwest 316 364 18,200 840 Climbing Miami Center
03:20PM 27.1214 -80.4881 332° Northwest 331 381 19,000 660 Climbing Miami Center
03:21PM 27.2158 -80.5447 332° Northwest 358 412 19,600 1,200 Climbing Miami Center
03:22PM 27.3125 -80.5992 333° Northwest 373 429 21,400 1,500 Climbing Miami Center
03:23PM 27.4092 -80.6561 332° Northwest 383 441 22,700 1,260 Climbing Miami Center
03:24PM 27.5036 -80.7153 331° Northwest 388 447 24,000 1,200 Climbing Miami Center
03:25PM 27.6044 -80.7725 333° Northwest 388 447 25,200 1,200 Climbing Miami Center
03:26PM 27.7156 -80.8350 334° Northwest 393 452 26,500 900 Climbing Miami Center
03:27PM 27.8036 -80.8897 331° Northwest 399 459 27,000 240 Climbing Miami Center
03:28PM 27.9064 -80.9497 333° Northwest 405 466 27,000  Level Miami Center
03:29PM 28.0150 -81.0172 331° Northwest 415 478 27,000  Level Miami Center
03:30PM 28.1217 -81.0800 333° Northwest 421 484 27,000  Level Miami Center
03:31PM 28.2283 -81.1453 332° Northwest 431 496 27,000  Level Miami Center
03:32PM 28.3492 -81.2206 331° Northwest 431 496 27,000  Level Miami Center
03:34PM 28.4822 -81.3008 332° Northwest 442 509 27,000 -240 Level Jacksonville Center
03:35PM 28.6039 -81.3414 344° North 442 509 26,500 -780 Descending Jacksonville Center
03:36PM 28.7333 -81.3583 353° North 447 514 25,500 -1,020 Descending Jacksonville Center
03:37PM 28.8608 -81.3706 355° North 454 522 24,500 -1,080 Descending Jacksonville Center
03:38PM 28.9844 -81.4019 347° North 459 528 23,400 -1,140 Descending Jacksonville Center
03:39PM 29.0997 -81.4500 340° North 443 510 22,300 -1,200 Descending Jacksonville Center
03:40PM 29.2131 -81.4983 340° North 435 501 21,000 -1,380 Descending Jacksonville Center
03:41PM 29.3219 -81.5444 340° North 429 494 19,600 -1,620 Descending Jacksonville Center
03:41PM 29.3933 -81.5769 338° Northwest 409 471 18,500 -1,740 Descending Jacksonville Center
03:42PM 29.5044 -81.6256 339° North 409 471 16,900 -1,560 Descending Jacksonville Center
03:43PM 29.6050 -81.6694 339° North 397 457 15,400 -1,620 Descending Jacksonville Center
03:44PM 29.7036 -81.7067 342° North 394 453 13,900 -1,620 Descending Jacksonville Center
03:45PM 29.8183 -81.7075 360° North 369 425 12,200 -1,620 Descending Jacksonville Center
03:46PM 29.9144 -81.7064 North 328 377 10,500 -1,980 Descending Jacksonville Center
03:47PM 30.0000 -81.7031 North 313 360 8,300 -2,160 Descending Jacksonville Center
03:48PM 30.0856 -81.6994 North 287 330 6,200 -1,740 Descending Jacksonville Center
03:49PM 30.1586 -81.6986 North 265 305 4,800 -1,260 Descending Jacksonville Center
03:50PM 30.2356 -81.6761 14° North 277 319 3,700 -900 Descending Jacksonville Center
03:51PM 30.3128 -81.6511 16° North 291 335 3,000 -660 Descending Jacksonville Center
03:53PM 30.3792 -81.6283 16° North 242 278 2,400 -960 Descending Jacksonville Center
03:54PM 30.4461 -81.6419 350° North 201 231 1,000 -1,080 Descending Jacksonville Center
03:55PM 30.4758 -81.6803 312° West 128 147 100 -900 Descending Jacksonville Center
03:57PM 30.4833 -81.6833 311° West  Level FlightAware Approximate